Time;durP1;ratioP1;P1;durP2;ratioP2;P2;SDS_P1;SDS_P2;PMS_P1;PMS_P2;Temp;Humidity;BMP_temperature;BMP_pressure;BME280_temperature;BME280_humidity;BME280_pressure;Samples;Min_cycle;Max_cycle;Signal;HPM_P1;HPM_P2
2021/11/25 00:00:20;;;;;;;;;;;;;;;20.13;52.67;98756.16;2094931;28;19916;-63
2021/11/25 00:01:20;;;;;;;;;;;;;;;20.12;52.66;98762.69;2095100;28;19916;-63
2021/11/25 00:02:21;;;;;;;;;;;;;;;20.12;52.67;98759.94;2095308;28;19917;-63
2021/11/25 00:03:21;;;;;;;;;;;;;;;20.11;52.90;98762.84;2094239;28;19990;-62
2021/11/25 00:04:23;;;;;;;;;;;;;;;20.10;52.73;98761.16;2094807;28;19923;-63
2021/11/25 00:05:24;;;;;;;;;;;;;;;20.11;52.75;98761.00;2095280;28;19920;-63
2021/11/25 00:06:25;;;;;;;;;;;;;;;20.11;52.94;98754.66;2096410;28;19913;-63
2021/11/25 00:07:25;;;;;;;;;;;;;;;20.09;52.93;98754.84;2094581;28;20016;-63
2021/11/25 00:08:26;;;;;;;;;;;;;;;20.09;53.01;98754.84;2085775;28;19913;-63
2021/11/25 00:09:27;;;;;;;;;;;;;;;20.08;52.99;98747.66;2080160;28;19936;-63
2021/11/25 00:10:27;;;;;;;;;;;;;;;20.08;52.87;98747.66;2091376;28;19971;-63
2021/11/25 00:11:28;;;;;;;;;;;;;;;20.07;52.93;98746.00;2092928;28;19912;-63
2021/11/25 00:12:28;;;;;;;;;;;;;;;20.06;53.02;98736.09;2089029;28;19962;-63
2021/11/25 00:13:28;;;;;;;;;;;;;;;20.07;52.94;98737.78;2092968;28;20457;-62
2021/11/25 00:14:36;;;;;;;;;;;;;;;20.07;53.06;98737.78;2093994;28;19917;-63
2021/11/25 00:15:36;;;;;;;;;;;;;;;20.06;53.10;98738.84;2094665;28;19999;-63
2021/11/25 00:16:37;;;;;;;;;;;;;;;20.06;52.89;98743.44;2092339;28;19912;-63
2021/11/25 00:17:38;;;;;;;;;;;;;;;20.05;53.05;98742.59;2095549;28;19952;-63
2021/11/25 00:18:38;;;;;;;;;;;;;;;20.05;52.98;98737.13;2093653;28;20637;-63
2021/11/25 00:19:38;;;;;;;;;;;;;;;20.04;53.09;98740.91;2095279;28;19920;-63
2021/11/25 00:20:39;;;;;;;;;;;;;;;20.03;53.16;98733.72;2094913;28;19955;-63
2021/11/25 00:21:39;;;;;;;;;;;;;;;20.04;52.98;98740.03;2094946;28;19932;-63
2021/11/25 00:22:40;;;;;;;;;;;;;;;20.03;53.14;98738.34;2095345;28;19923;-66
2021/11/25 00:23:41;;;;;;;;;;;;;;;20.02;53.09;98729.28;2093222;28;20283;-63
2021/11/25 00:24:42;;;;;;;;;;;;;;;20.03;53.08;98733.72;2095227;28;19916;-63
2021/11/25 00:25:42;;;;;;;;;;;;;;;20.03;53.05;98728.25;2095814;28;19912;-63
2021/11/25 00:26:42;;;;;;;;;;;;;;;20.02;53.15;98726.56;2093528;28;19917;-63
2021/11/25 00:27:43;;;;;;;;;;;;;;;20.02;53.09;98723.81;2095396;28;19919;-63
2021/11/25 00:28:44;;;;;;;;;;;;;;;20.01;53.01;98724.00;2094672;28;19926;-63
2021/11/25 00:29:44;;;;;;;;;;;;;;;20.01;53.23;98722.09;2094971;28;19981;-63
2021/11/25 00:30:45;;;;;;;;;;;;;;;20.01;53.04;98716.63;2095475;28;19920;-63
2021/11/25 00:31:45;;;;;;;;;;;;;;;20.01;53.10;98718.53;2094697;28;19982;-63
2021/11/25 00:32:45;;;;;;;;;;;;;;;20.00;53.03;98717.69;2093481;28;19913;-63
2021/11/25 00:33:46;;;;;;;;;;;;;;;20.00;53.03;98716.84;2093883;28;19919;-62
2021/11/25 00:34:46;;;;;;;;;;;;;;;20.00;52.99;98723.16;2094347;28;19944;-63
2021/11/25 00:35:46;;;;;;;;;;;;;;;19.99;53.22;98717.88;2094975;28;19917;-64
2021/11/25 00:36:46;;;;;;;;;;;;;;;20.00;53.12;98723.16;2094504;28;19952;-63
2021/11/25 00:37:47;;;;;;;;;;;;;;;19.99;53.11;98721.47;2095575;28;19916;-63
2021/11/25 00:38:47;;;;;;;;;;;;;;;19.99;53.17;98709.66;2094987;28;19916;-62
2021/11/25 00:39:48;;;;;;;;;;;;;;;19.99;53.09;98716.00;2086449;28;19912;-63
2021/11/25 00:40:48;;;;;;;;;;;;;;;19.99;53.21;98710.53;2088435;28;19974;-63
2021/11/25 00:41:49;;;;;;;;;;;;;;;20.00;53.10;98716.84;2095258;28;19924;-63
2021/11/25 00:42:49;;;;;;;;;;;;;;;19.99;53.13;98709.66;2094276;28;19916;-63
2021/11/25 00:43:50;;;;;;;;;;;;;;;19.99;53.12;98712.41;2092461;28;19912;-63
2021/11/25 00:44:50;;;;;;;;;;;;;;;19.98;53.19;98708.81;2094241;28;19999;-62
2021/11/25 00:45:50;;;;;;;;;;;;;;;19.99;53.20;98710.53;2094295;28;19984;-63
2021/11/25 00:46:50;;;;;;;;;;;;;;;19.97;53.14;98696.19;2095349;28;20391;-63
2021/11/25 00:47:51;;;;;;;;;;;;;;;19.97;53.14;98696.19;2094348;28;20100;-63
2021/11/25 00:48:51;;;;;;;;;;;;;;;19.96;53.26;98697.22;2094267;28;19916;-63
2021/11/25 00:49:51;;;;;;;;;;;;;;;19.97;53.28;98689.88;2094329;28;19962;-63
2021/11/25 00:50:55;;;;;;;;;;;;;;;19.97;53.17;98692.63;2094320;28;20666;-62
2021/11/25 00:51:55;;;;;;;;;;;;;;;19.95;53.27;98690.06;2094626;28;19928;-63
2021/11/25 00:52:56;;;;;;;;;;;;;;;19.96;53.31;98688.16;2094546;28;19948;-63
2021/11/25 00:53:56;;;;;;;;;;;;;;;19.97;53.23;98688.00;2093911;28;19920;-63
2021/11/25 00:54:56;;;;;;;;;;;;;;;19.96;53.31;98682.69;2094527;28;20395;-63
2021/11/25 00:55:56;;;;;;;;;;;;;;;19.95;53.36;98681.84;2094002;28;19917;-63
2021/11/25 00:56:57;;;;;;;;;;;;;;;19.95;53.19;98692.78;2094326;28;19963;-63
2021/11/25 00:57:57;;;;;;;;;;;;;;;19.96;53.15;98689.00;2094198;28;19970;-63
2021/11/25 00:58:58;;;;;;;;;;;;;;;19.93;53.27;98681.19;2101089;28;19956;-63
2021/11/25 00:59:58;;;;;;;;;;;;;;;19.93;53.22;98681.19;2095026;28;19966;-63
2021/11/25 01:00:58;;;;;;;;;;;;;;;19.94;53.31;98682.88;2094891;28;19920;-63
2021/11/25 01:01:58;;;;;;;;;;;;;;;19.94;53.16;98680.13;2094384;28;19944;-63
2021/11/25 01:02:59;;;;;;;;;;;;;;;19.94;53.22;98677.41;2093688;28;19935;-63
2021/11/25 01:03:59;;;;;;;;;;;;;;;19.95;53.35;98686.47;2093963;28;20375;-63
2021/11/25 01:04:59;;;;;;;;;;;;;;;19.94;53.21;98671.94;2094574;28;19913;-63
2021/11/25 01:06:00;;;;;;;;;;;;;;;19.93;53.21;98673.00;2093698;28;19916;-63
2021/11/25 01:07:00;;;;;;;;;;;;;;;19.92;53.21;98672.16;2094354;28;19935;-62
2021/11/25 01:08:00;;;;;;;;;;;;;;;19.93;53.41;98675.72;2095087;28;20379;-63
2021/11/25 01:09:01;;;;;;;;;;;;;;;19.92;53.31;98671.31;2093295;28;19916;-63
2021/11/25 01:10:03;;;;;;;;;;;;;;;19.93;53.42;98673.00;2094882;28;20400;-62
2021/11/25 01:11:04;;;;;;;;;;;;;;;19.92;53.25;98677.63;2094350;28;19916;-63
2021/11/25 01:12:04;;;;;;;;;;;;;;;19.91;53.43;98670.44;2094327;28;20388;-63
2021/11/25 01:13:05;;;;;;;;;;;;;;;19.92;53.38;98668.56;2094719;28;19923;-63
2021/11/25 01:14:05;;;;;;;;;;;;;;;19.91;53.18;98659.50;2093807;28;19916;-63
2021/11/25 01:15:06;;;;;;;;;;;;;;;19.91;53.40;98658.66;2094580;28;19923;-63
2021/11/25 01:16:07;;;;;;;;;;;;;;;19.91;53.33;98670.44;2094564;28;19923;-63
2021/11/25 01:17:07;;;;;;;;;;;;;;;19.90;53.40;98657.81;2093360;28;19916;-63
2021/11/25 01:18:09;;;;;;;;;;;;;;;19.90;53.36;98656.97;2093686;28;19919;-63
2021/11/25 01:19:10;;;;;;;;;;;;;;;19.90;53.26;98656.97;2095176;28;19916;-63
2021/11/25 01:20:17;;;;;;;;;;;;;;;19.90;53.41;98654.22;2093906;28;19917;-63
2021/11/25 01:21:17;;;;;;;;;;;;;;;19.89;53.25;98653.38;2094997;28;20300;-62
2021/11/25 01:22:17;;;;;;;;;;;;;;;19.90;53.45;98648.75;2094353;28;19985;-62
2021/11/25 01:23:19;;;;;;;;;;;;;;;19.89;53.29;98647.03;2094864;28;19917;-63
2021/11/25 01:24:20;;;;;;;;;;;;;;;19.89;53.51;98656.13;2094383;28;19919;-63
2021/11/25 01:25:20;;;;;;;;;;;;;;;19.89;53.34;98652.50;2093357;28;20024;-63
2021/11/25 01:26:21;;;;;;;;;;;;;;;19.89;53.43;98649.78;2092681;28;19992;-62
2021/11/25 01:27:21;;;;;;;;;;;;;;;19.88;53.46;98656.31;2094516;28;19916;-63
2021/11/25 01:28:22;;;;;;;;;;;;;;;19.87;53.39;98647.25;2094306;28;19978;-63
2021/11/25 01:29:22;;;;;;;;;;;;;;;19.88;53.50;98651.69;2093875;28;19920;-63
2021/11/25 01:30:23;;;;;;;;;;;;;;;19.88;53.44;98653.56;2094809;28;19921;-63
2021/11/25 01:31:23;;;;;;;;;;;;;;;19.89;53.48;98649.78;2094513;28;19944;-62
2021/11/25 01:32:23;;;;;;;;;;;;;;;19.88;53.45;98645.38;2094753;28;19959;-63
2021/11/25 01:33:25;;;;;;;;;;;;;;;19.88;53.41;98648.94;2094098;28;20022;-63
2021/11/25 01:34:25;;;;;;;;;;;;;;;19.88;53.38;98653.56;2094853;28;19917;-63
2021/11/25 01:35:25;;;;;;;;;;;;;;;19.88;53.37;98648.09;2094189;28;19956;-63
2021/11/25 01:36:26;;;;;;;;;;;;;;;19.87;53.43;98644.53;2094010;28;19924;-63
2021/11/25 01:37:28;;;;;;;;;;;;;;;19.87;53.51;98646.41;2093570;28;20016;-63
2021/11/25 01:38:29;;;;;;;;;;;;;;;19.87;53.50;98646.41;2094481;28;19912;-62
2021/11/25 01:39:29;;;;;;;;;;;;;;;19.86;53.45;98640.06;2093609;28;20524;-63
2021/11/25 01:40:30;;;;;;;;;;;;;;;19.85;53.48;98634.81;2094499;28;20392;-63
2021/11/25 01:41:30;;;;;;;;;;;;;;;19.86;53.54;98639.22;2094585;28;20406;-63
2021/11/25 01:42:37;;;;;;;;;;;;;;;19.85;53.57;98637.56;2094425;28;19921;-63
2021/11/25 01:43:38;;;;;;;;;;;;;;;19.86;53.41;98644.69;2094823;28;19917;-62
2021/11/25 01:44:39;;;;;;;;;;;;;;;19.87;53.55;98640.94;2093136;28;19917;-63
2021/11/25 01:45:39;;;;;;;;;;;;;;;19.85;53.69;98643.84;2075477;28;19921;-63
2021/11/25 01:46:40;;;;;;;;;;;;;;;19.86;53.49;98644.69;2080567;28;19912;-62
2021/11/25 01:47:41;;;;;;;;;;;;;;;19.85;53.40;98638.38;2093527;28;19917;-63
2021/11/25 01:48:42;;;;;;;;;;;;;;;19.85;53.45;98643.00;2094441;28;19913;-63
2021/11/25 01:49:43;;;;;;;;;;;;;;;19.84;53.58;98630.38;2094051;28;20429;-63
2021/11/25 01:50:44;;;;;;;;;;;;;;;19.85;53.61;98638.38;2094475;28;19916;-63
2021/11/25 01:51:45;;;;;;;;;;;;;;;19.83;53.40;98635.00;2093963;28;20045;-64
2021/11/25 01:52:45;;;;;;;;;;;;;;;19.85;53.41;98641.13;2096167;28;19920;-63
2021/11/25 01:53:47;;;;;;;;;;;;;;;19.85;53.36;98637.56;2088032;28;19917;-63
2021/11/25 01:54:47;;;;;;;;;;;;;;;19.85;53.49;98637.56;2094900;28;20291;-63
2021/11/25 01:55:48;;;;;;;;;;;;;;;19.83;53.42;98634.16;2093945;28;19920;-63
2021/11/25 01:56:48;;;;;;;;;;;;;;;19.84;53.45;98635.84;2094885;28;20022;-63
2021/11/25 01:57:49;;;;;;;;;;;;;;;19.84;53.43;98641.31;2094492;28;19916;-63
2021/11/25 01:58:50;;;;;;;;;;;;;;;19.83;53.55;98640.47;2094237;28;19912;-63
2021/11/25 01:59:51;;;;;;;;;;;;;;;19.84;53.55;98638.56;2094800;28;19912;-63
2021/11/25 02:00:53;;;;;;;;;;;;;;;19.83;53.47;98639.63;2094543;28;19926;-63
2021/11/25 02:01:53;;;;;;;;;;;;;;;19.83;53.41;98642.34;2092854;28;20362;-63
2021/11/25 02:02:54;;;;;;;;;;;;;;;19.82;53.43;98649.72;2094168;28;19912;-63
2021/11/25 02:03:55;;;;;;;;;;;;;;;19.82;53.54;98648.84;2094073;28;19921;-63
2021/11/25 02:04:55;;;;;;;;;;;;;;;19.82;53.58;98643.38;2094853;28;19927;-63
2021/11/25 02:06:05;;;;;;;;;;;;;;;19.82;53.50;98646.09;2093117;28;20073;-63
2021/11/25 02:07:17;;;;;;;;;;;;;;;19.82;53.54;98637.91;2092661;28;19917;-63
2021/11/25 02:08:17;;;;;;;;;;;;;;;19.81;53.48;98642.53;2094113;28;20746;-62
2021/11/25 02:09:17;;;;;;;;;;;;;;;19.82;53.49;98643.38;2095023;28;20375;-63
2021/11/25 02:10:18;;;;;;;;;;;;;;;19.82;53.44;98637.91;2095224;28;19987;-63
2021/11/25 02:11:18;;;;;;;;;;;;;;;19.81;53.52;98648.00;2095209;28;19923;-63
2021/11/25 02:12:20;;;;;;;;;;;;;;;19.81;53.53;98636.22;2095711;28;19916;-63
2021/11/25 02:13:21;;;;;;;;;;;;;;;19.82;53.62;98637.91;2095207;28;19916;-63
2021/11/25 02:14:22;;;;;;;;;;;;;;;19.81;53.61;98638.97;2095363;28;19923;-63
2021/11/25 02:15:22;;;;;;;;;;;;;;;19.81;53.50;98630.75;2095828;28;19943;-63
2021/11/25 02:16:22;;;;;;;;;;;;;;;19.81;53.53;98630.75;2095494;28;20271;-63
2021/11/25 02:17:22;;;;;;;;;;;;;;;19.80;53.59;98635.38;2095537;28;19909;-63
2021/11/25 02:18:24;;;;;;;;;;;;;;;19.81;53.57;98636.22;2094027;28;20404;-63
2021/11/25 02:19:26;;;;;;;;;;;;;;;19.80;53.48;98632.66;2095393;28;19916;-63
2021/11/25 02:20:30;;;;;;;;;;;;;;;19.81;53.54;98636.22;2096026;28;20302;-63
2021/11/25 02:21:30;;;;;;;;;;;;;;;19.80;53.58;98642.75;2095345;28;19923;-63
2021/11/25 02:22:31;;;;;;;;;;;;;;;19.80;53.59;98634.53;2095068;28;20010;-63
2021/11/25 02:23:31;;;;;;;;;;;;;;;19.80;53.56;98635.38;2096119;28;19913;-63
2021/11/25 02:24:32;;;;;;;;;;;;;;;19.80;53.49;98634.53;2095417;28;19924;-63
2021/11/25 02:25:32;;;;;;;;;;;;;;;19.79;53.46;98638.28;2095773;28;20007;-63
2021/11/25 02:26:32;;;;;;;;;;;;;;;19.80;53.48;98642.75;2091814;28;20307;-63
2021/11/25 02:27:33;;;;;;;;;;;;;;;19.80;53.58;98637.28;2095863;28;20109;-63
2021/11/25 02:28:35;;;;;;;;;;;;;;;19.79;53.52;98639.13;2095935;28;19955;-63
2021/11/25 02:29:35;;;;;;;;;;;;;;;19.78;53.60;98637.44;2095314;28;19912;-63
2021/11/25 02:30:45;;;;;;;;;;;;;;;19.79;53.53;98632.81;2096032;28;19931;-63
2021/11/25 02:31:45;;;;;;;;;;;;;;;19.79;53.51;98643.75;2095623;28;19917;-63
2021/11/25 02:32:46;;;;;;;;;;;;;;;19.80;53.49;98635.38;2086082;28;19913;-62
2021/11/25 02:33:46;;;;;;;;;;;;;;;19.78;53.61;98637.44;2086630;28;19920;-63
2021/11/25 02:34:47;;;;;;;;;;;;;;;19.78;53.53;98644.81;2086431;28;19959;-63
2021/11/25 02:35:47;;;;;;;;;;;;;;;19.79;53.55;98641.03;2090123;28;20021;-63
2021/11/25 02:36:48;;;;;;;;;;;;;;;19.79;53.58;98632.81;2087550;28;20236;-63
2021/11/25 02:37:49;;;;;;;;;;;;;;;19.79;53.60;98632.81;2094615;28;19916;-63
2021/11/25 02:38:50;;;;;;;;;;;;;;;19.79;53.47;98635.56;2094780;28;20314;-63
2021/11/25 02:39:51;;;;;;;;;;;;;;;19.78;53.60;98623.78;2095441;28;20323;-63
2021/11/25 02:40:54;;;;;;;;;;;;;;;19.79;53.53;98627.34;2086163;28;19948;-63
2021/11/25 02:41:54;;;;;;;;;;;;;;;19.78;53.52;98631.97;2086916;28;19917;-63
2021/11/25 02:42:56;;;;;;;;;;;;;;;19.78;53.44;98631.13;2095175;28;19920;-63
2021/11/25 02:43:57;;;;;;;;;;;;;;;19.77;53.56;98623.97;2095711;28;19921;-63
2021/11/25 02:44:57;;;;;;;;;;;;;;;19.78;53.62;98620.19;2092222;28;19917;-63
2021/11/25 02:45:59;;;;;;;;;;;;;;;19.77;53.73;98629.44;2095732;28;20076;-63
2021/11/25 02:47:02;;;;;;;;;;;;;;;19.78;53.53;98631.13;2095086;28;19989;-63
2021/11/25 02:48:03;;;;;;;;;;;;;;;19.77;53.60;98626.69;2092902;28;19916;-63
2021/11/25 02:49:03;;;;;;;;;;;;;;;19.78;53.67;98625.66;2094259;28;19916;-63
2021/11/25 02:50:04;;;;;;;;;;;;;;;19.77;53.67;98622.09;2089580;28;20047;-63
2021/11/25 02:51:04;;;;;;;;;;;;;;;19.76;53.64;98625.84;2095183;28;19912;-63
2021/11/25 02:52:05;;;;;;;;;;;;;;;19.77;53.56;98619.38;2082883;28;19994;-63
2021/11/25 02:53:05;;;;;;;;;;;;;;;19.77;53.65;98618.50;2086102;28;19960;-62
2021/11/25 02:54:06;;;;;;;;;;;;;;;19.77;53.61;98618.50;2084538;28;19924;-63
2021/11/25 02:55:07;;;;;;;;;;;;;;;19.77;53.53;98619.38;2085616;28;19961;-63
2021/11/25 02:56:08;;;;;;;;;;;;;;;19.77;53.68;98613.91;2095286;28;19921;-63
2021/11/25 02:57:09;;;;;;;;;;;;;;;19.77;53.65;98613.03;2095135;28;20195;-63
2021/11/25 02:58:09;;;;;;;;;;;;;;;19.77;53.63;98615.75;2095062;28;19956;-63
2021/11/25 02:59:09;;;;;;;;;;;;;;;19.76;53.57;98614.06;2095555;28;19913;-63
2021/11/25 03:00:15;;;;;;;;;;;;;;;19.76;53.68;98611.34;2092505;28;20268;-63
2021/11/25 03:01:15;;;;;;;;;;;;;;;19.76;53.69;98605.88;2090509;28;19920;-63
2021/11/25 03:02:15;;;;;;;;;;;;;;;19.76;53.61;98612.19;2086523;28;19952;-63
2021/11/25 03:03:17;;;;;;;;;;;;;;;19.76;53.62;98594.94;2085383;28;19916;-63
2021/11/25 03:04:17;;;;;;;;;;;;;;;19.76;53.72;98597.66;2095086;28;19919;-63
2021/11/25 03:05:25;;;;;;;;;;;;;;;19.75;53.61;98596.00;2094602;28;19924;-63
2021/11/25 03:06:25;;;;;;;;;;;;;;;19.75;53.72;98593.25;2094536;28;19916;-63
2021/11/25 03:07:25;;;;;;;;;;;;;;;19.74;53.70;98597.84;2096237;28;19999;-63
2021/11/25 03:08:26;;;;;;;;;;;;;;;19.75;53.62;98599.56;2097065;28;19913;-63
2021/11/25 03:09:26;;;;;;;;;;;;;;;19.75;53.72;98593.25;2101758;28;19951;-63
2021/11/25 03:10:26;;;;;;;;;;;;;;;19.75;53.64;98593.25;2095443;28;19916;-63
2021/11/25 03:11:28;;;;;;;;;;;;;;;19.74;53.62;98595.13;2095445;28;19932;-63
2021/11/25 03:12:28;;;;;;;;;;;;;;;19.74;53.61;98608.78;2098967;28;20629;-63
2021/11/25 03:13:29;;;;;;;;;;;;;;;19.75;53.63;98602.28;2096682;28;19955;-62
2021/11/25 03:14:29;;;;;;;;;;;;;;;19.74;53.63;98597.84;2086633;28;19939;-62
2021/11/25 03:15:30;;;;;;;;;;;;;;;19.74;53.67;98599.75;2086437;28;19963;-63
2021/11/25 03:16:31;;;;;;;;;;;;;;;19.73;53.71;98595.31;2095571;28;19912;-62
2021/11/25 03:17:32;;;;;;;;;;;;;;;19.73;53.63;98595.31;2091384;28;19913;-62
2021/11/25 03:18:32;;;;;;;;;;;;;;;19.72;53.66;98599.06;2094727;28;19923;-63
2021/11/25 03:19:33;;;;;;;;;;;;;;;19.74;53.70;98610.69;2095663;28;19916;-63
2021/11/25 03:20:35;;;;;;;;;;;;;;;19.73;53.65;98609.00;2094324;28;20252;-62
2021/11/25 03:21:35;;;;;;;;;;;;;;;19.73;53.75;98600.78;2094286;28;20264;-63
2021/11/25 03:22:35;;;;;;;;;;;;;;;19.73;53.68;98600.78;2094977;28;19966;-63
2021/11/25 03:23:37;;;;;;;;;;;;;;;19.72;53.67;98604.53;2094320;28;19981;-62
2021/11/25 03:24:37;;;;;;;;;;;;;;;19.73;53.65;98606.25;2095347;28;20295;-63
2021/11/25 03:25:38;;;;;;;;;;;;;;;19.72;53.74;98599.06;2092425;28;19920;-62
2021/11/25 03:26:38;;;;;;;;;;;;;;;19.73;53.71;98596.16;2094798;28;19999;-62
2021/11/25 03:27:39;;;;;;;;;;;;;;;19.72;53.71;98599.94;2094713;28;19931;-63
2021/11/25 03:28:45;;;;;;;;;;;;;;;19.73;53.55;98600.78;2096605;28;19921;-63
2021/11/25 03:29:45;;;;;;;;;;;;;;;19.72;53.74;98604.53;2087606;28;19920;-63
2021/11/25 03:30:53;;;;;;;;;;;;;;;19.72;53.72;98593.59;2094496;28;20366;-63
2021/11/25 03:31:54;;;;;;;;;;;;;;;19.70;53.65;98602.84;2101692;28;20314;-63
2021/11/25 03:32:54;;;;;;;;;;;;;;;19.70;53.63;98597.41;2101537;28;19916;-63
2021/11/25 03:33:55;;;;;;;;;;;;;;;19.69;53.76;98603.88;2091472;28;19924;-63
2021/11/25 03:34:56;;;;;;;;;;;;;;;19.70;53.61;98602.84;2095006;28;20050;-63
2021/11/25 03:35:57;;;;;;;;;;;;;;;19.69;53.63;98601.16;2094311;28;19921;-63
2021/11/25 03:36:57;;;;;;;;;;;;;;;19.72;53.72;98599.06;2093250;28;19913;-62
2021/11/25 03:37:58;;;;;;;;;;;;;;;19.70;53.73;98594.66;2094828;28;19917;-63
2021/11/25 03:38:58;;;;;;;;;;;;;;;19.70;53.69;98594.66;2094310;28;19924;-63
2021/11/25 03:39:59;;;;;;;;;;;;;;;19.69;53.73;98595.69;2094971;28;19931;-62
2021/11/25 03:41:00;;;;;;;;;;;;;;;19.69;53.70;98601.16;2094398;28;20375;-63
2021/11/25 03:42:01;;;;;;;;;;;;;;;19.68;53.75;98591.25;2094290;28;20588;-64
2021/11/25 03:43:01;;;;;;;;;;;;;;;19.68;53.70;98599.47;2095041;28;20251;-63
2021/11/25 03:44:02;;;;;;;;;;;;;;;19.68;53.70;98602.19;2094270;28;19963;-63
2021/11/25 03:45:03;;;;;;;;;;;;;;;19.69;53.86;98605.78;2094103;28;20236;-62
2021/11/25 03:46:03;;;;;;;;;;;;;;;19.67;53.80;98600.50;2094676;28;19916;-62
2021/11/25 03:47:04;;;;;;;;;;;;;;;19.68;53.76;98604.94;2094736;28;19916;-62
2021/11/25 03:48:04;;;;;;;;;;;;;;;19.68;53.76;98606.81;2095303;28;19965;-63
2021/11/25 03:49:05;;;;;;;;;;;;;;;19.67;53.78;98597.78;2094826;28;19947;-62
2021/11/25 03:50:05;;;;;;;;;;;;;;;19.66;53.85;98598.78;2094868;28;20024;-62
2021/11/25 03:51:08;;;;;;;;;;;;;;;19.66;53.78;98584.25;2095295;28;19963;-63
2021/11/25 03:52:08;;;;;;;;;;;;;;;19.65;53.82;98583.41;2095006;28;20363;-62
2021/11/25 03:53:08;;;;;;;;;;;;;;;19.65;53.83;98599.81;2095457;28;20413;-63
2021/11/25 03:54:09;;;;;;;;;;;;;;;19.66;53.88;98600.66;2095169;28;19912;-63
2021/11/25 03:55:33;;;;;;;;;;;;;;;19.65;53.82;98588.03;2093663;28;19987;-63
2021/11/25 03:56:33;;;;;;;;;;;;;;;19.65;53.77;98599.81;2095486;28;19921;-63
2021/11/25 03:57:34;;;;;;;;;;;;;;;19.65;53.81;98597.09;2090381;28;19942;-63
2021/11/25 03:58:34;;;;;;;;;;;;;;;19.65;53.86;98594.34;2094969;28;19919;-63
2021/11/25 03:59:34;;;;;;;;;;;;;;;19.64;53.90;98595.38;2094660;28;19913;-63
2021/11/25 04:00:35;;;;;;;;;;;;;;;19.64;53.83;98598.09;2095144;28;19974;-63
2021/11/25 04:01:35;;;;;;;;;;;;;;;19.63;53.85;98590.97;2095130;28;20577;-63
2021/11/25 04:02:35;;;;;;;;;;;;;;;19.63;53.89;98590.97;2095215;28;19926;-63
2021/11/25 04:03:36;;;;;;;;;;;;;;;19.64;53.97;98595.38;2095309;28;19912;-63
2021/11/25 04:04:36;;;;;;;;;;;;;;;19.63;53.81;98590.97;2095200;28;19955;-63
2021/11/25 04:05:36;;;;;;;;;;;;;;;19.63;53.96;98596.41;2085262;28;19916;-63
2021/11/25 04:06:37;;;;;;;;;;;;;;;19.63;53.77;98590.13;2085974;28;19913;-63
2021/11/25 04:07:37;;;;;;;;;;;;;;;19.62;53.85;98588.41;2094495;28;19962;-64
2021/11/25 04:08:37;;;;;;;;;;;;;;;19.61;53.90;98590.28;2094655;28;20358;-63
2021/11/25 04:09:38;;;;;;;;;;;;;;;19.62;53.96;98589.28;2094077;28;19916;-63
2021/11/25 04:10:38;;;;;;;;;;;;;;;19.61;53.92;98592.19;2094696;28;19916;-63
2021/11/25 04:11:39;;;;;;;;;;;;;;;19.61;53.84;98578.53;2095056;28;19975;-62
2021/11/25 04:12:39;;;;;;;;;;;;;;;19.62;53.96;98592.00;2094397;28;19912;-63
2021/11/25 04:13:39;;;;;;;;;;;;;;;19.61;53.97;98589.44;2094827;28;19974;-63
2021/11/25 04:14:40;;;;;;;;;;;;;;;19.60;53.90;98580.41;2094843;28;19916;-63
2021/11/25 04:15:40;;;;;;;;;;;;;;;19.59;53.93;98595.09;2095218;28;19921;-63
2021/11/25 04:16:40;;;;;;;;;;;;;;;19.60;53.86;98591.34;2094457;28;19924;-62
2021/11/25 04:17:41;;;;;;;;;;;;;;;19.60;53.99;98588.59;2089815;28;19971;-62
2021/11/25 04:18:41;;;;;;;;;;;;;;;19.59;54.00;98584.16;2094710;28;19943;-62
2021/11/25 04:19:41;;;;;;;;;;;;;;;19.60;53.94;98590.47;2094860;28;19917;-63
2021/11/25 04:20:42;;;;;;;;;;;;;;;19.60;53.99;98591.34;2095870;28;19920;-62
2021/11/25 04:21:42;;;;;;;;;;;;;;;19.59;54.05;98584.16;2094456;28;19919;-63
2021/11/25 04:22:43;;;;;;;;;;;;;;;19.59;53.95;98588.78;2094062;28;19916;-63
2021/11/25 04:23:43;;;;;;;;;;;;;;;19.59;53.99;98584.16;2094027;28;20371;-62
2021/11/25 04:24:43;;;;;;;;;;;;;;;19.59;53.96;98573.22;2094557;28;20130;-62
2021/11/25 04:25:44;;;;;;;;;;;;;;;19.58;53.89;98581.63;2094445;28;19943;-63
2021/11/25 04:26:44;;;;;;;;;;;;;;;19.58;53.92;98582.47;2094128;28;19916;-63
2021/11/25 04:27:45;;;;;;;;;;;;;;;19.58;54.00;98585.22;2094547;28;20637;-62
2021/11/25 04:28:46;;;;;;;;;;;;;;;19.58;53.98;98587.94;2097150;28;19938;-63
2021/11/25 04:29:52;;;;;;;;;;;;;;;19.58;54.05;98585.22;2094418;28;19927;-63
2021/11/25 04:35:28;;;;;;;;;;;;;;;19.57;54.05;98580.75;2093813;28;20422;-63
2021/11/25 04:36:10;;;;;;;;;;;;;;;19.56;53.98;98567.31;2094498;28;20325;-63
2021/11/25 04:37:32;;;;;;;;;;;;;;;19.56;53.97;98573.63;2094292;28;19966;-63
2021/11/25 04:38:32;;;;;;;;;;;;;;;19.56;54.07;98579.09;2089667;28;20527;-62
2021/11/25 04:39:32;;;;;;;;;;;;;;;19.55;53.98;98571.94;2091989;28;19947;-63
2021/11/25 04:40:35;;;;;;;;;;;;;;;19.56;54.03;98573.63;2094531;28;20321;-62
2021/11/25 04:41:36;;;;;;;;;;;;;;;19.54;54.04;98567.50;2094532;28;19975;-62
2021/11/25 04:42:36;;;;;;;;;;;;;;;19.54;54.04;98578.41;2094677;28;20359;-63
2021/11/25 04:43:36;;;;;;;;;;;;;;;19.55;54.05;98576.53;2089525;28;19920;-63
2021/11/25 04:44:37;;;;;;;;;;;;;;;19.55;54.05;98582.00;2094206;28;19956;-63
2021/11/25 04:45:38;;;;;;;;;;;;;;;19.54;54.05;98581.16;2094434;28;19912;-62
2021/11/25 04:46:39;;;;;;;;;;;;;;;19.55;54.00;98580.13;2094311;28;19953;-63
2021/11/25 04:47:39;;;;;;;;;;;;;;;19.54;54.05;98586.63;2094706;28;19942;-63
2021/11/25 04:48:39;;;;;;;;;;;;;;;19.55;54.00;98588.34;2101784;28;19916;-63
2021/11/25 04:49:40;;;;;;;;;;;;;;;19.54;53.97;98588.50;2099189;28;19973;-63
2021/11/25 04:50:40;;;;;;;;;;;;;;;19.54;54.04;98586.63;2090661;28;19916;-63
2021/11/25 04:51:41;;;;;;;;;;;;;;;19.53;53.98;98582.19;2094524;28;20676;-63
2021/11/25 04:52:41;;;;;;;;;;;;;;;19.53;54.05;98584.94;2087231;28;19955;-63
2021/11/25 04:53:41;;;;;;;;;;;;;;;19.52;54.09;98582.38;2086175;28;20229;-62
2021/11/25 04:54:42;;;;;;;;;;;;;;;19.53;54.02;98584.09;2087018;28;19917;-63
2021/11/25 04:55:43;;;;;;;;;;;;;;;19.53;54.08;98582.19;2086333;28;20338;-63
2021/11/25 04:56:43;;;;;;;;;;;;;;;19.53;54.09;98584.94;2086264;28;19996;-63
2021/11/25 04:57:45;;;;;;;;;;;;;;;19.52;54.19;98585.94;2086605;28;20386;-63
2021/11/25 04:58:45;;;;;;;;;;;;;;;19.51;54.11;98580.69;2086377;28;19917;-63
2021/11/25 04:59:45;;;;;;;;;;;;;;;19.52;54.04;98585.94;2085867;28;19920;-63
2021/11/25 05:00:46;;;;;;;;;;;;;;;19.50;54.08;98582.59;2086605;28;19917;-63
2021/11/25 05:01:46;;;;;;;;;;;;;;;19.51;54.09;98576.06;2086001;28;19963;-62
2021/11/25 05:02:47;;;;;;;;;;;;;;;19.50;54.09;98574.38;2086199;28;19916;-63
2021/11/25 05:03:47;;;;;;;;;;;;;;;19.50;54.19;98582.59;2094456;28;19995;-63
2021/11/25 05:04:47;;;;;;;;;;;;;;;19.50;54.09;98585.31;2093521;28;19923;-63
2021/11/25 05:05:48;;;;;;;;;;;;;;;19.49;54.15;98584.44;2077678;28;19917;-63
2021/11/25 05:06:48;;;;;;;;;;;;;;;19.50;54.11;98590.78;2076516;28;20008;-63
2021/11/25 05:07:49;;;;;;;;;;;;;;;19.49;54.16;98578.97;2086455;28;19972;-63
2021/11/25 05:08:49;;;;;;;;;;;;;;;19.49;54.17;98583.59;2085980;28;19944;-63
2021/11/25 05:09:49;;;;;;;;;;;;;;;19.49;54.08;98587.19;2085666;28;20294;-63
2021/11/25 05:10:50;;;;;;;;;;;;;;;19.49;54.20;98583.59;2086694;28;19924;-63
2021/11/25 05:11:50;;;;;;;;;;;;;;;19.49;54.19;98578.16;2086411;28;19963;-62
2021/11/25 05:12:51;;;;;;;;;;;;;;;19.48;54.12;98571.84;2085941;28;20391;-63
2021/11/25 05:13:51;;;;;;;;;;;;;;;19.48;54.22;98577.31;2086507;28;19991;-63
2021/11/25 05:14:51;;;;;;;;;;;;;;;19.48;54.18;98574.56;2086389;28;20406;-63
2021/11/25 05:15:51;;;;;;;;;;;;;;;19.48;54.22;98576.47;2086231;28;20379;-63
2021/11/25 05:16:52;;;;;;;;;;;;;;;19.47;54.11;98580.22;2086264;28;20367;-63
2021/11/25 05:17:52;;;;;;;;;;;;;;;19.47;54.18;98569.28;2086261;28;20392;-62
2021/11/25 05:18:52;;;;;;;;;;;;;;;19.46;54.23;98575.78;2086163;28;20294;-62
2021/11/25 05:19:53;;;;;;;;;;;;;;;19.46;54.17;98573.06;2086124;28;19913;-63
2021/11/25 05:20:58;;;;;;;;;;;;;;;19.46;54.31;98579.38;2086138;28;20267;-63
2021/11/25 05:21:59;;;;;;;;;;;;;;;19.46;54.22;98578.53;2086885;28;20413;-63